Manyberries, Canada
Current Conditions -  °F | °C
As of 12:00 PM on Thursday 27 Nov 2014 (Local Time) from CYXH Reporting Station
Broken Clouds Broken Clouds  
Wind Chill: -3°   Ceiling: 27000
Heat Index:   Visibility: 30mi
Dew Point: -2°   Wind: 6mph
Humidity: 87%   Direction: 360°N
Pressure: 29.71"   Gusts: NA
Location:  49.4°N, 110.7°W
Report Text: CYXH 271900Z 36005KT 30SM SCT120 BKN270 00/M02 A2971 RMK AC4CI3 SLP088
Loading
Personal Weather Stations






























Interactive Weather Map New forecast layout! Learn more

10-Day Weather Forecast

Advertisements
Track Severe Weather on mobile